sensor_id;sensor_type;location;lat;lon;timestamp;P1;durP1;ratioP1;P2;durP2;ratioP2
40367;SDS011;26075;43.320;21.920;2023-02-24T00:08:17;34.35;;;23.52;;
40367;SDS011;26075;43.320;21.920;2023-02-24T00:18:56;40.80;;;25.67;;
40367;SDS011;26075;43.320;21.920;2023-02-24T00:29:21;43.08;;;26.35;;
40367;SDS011;26075;43.320;21.920;2023-02-24T00:39:57;46.90;;;29.23;;
40367;SDS011;26075;43.320;21.920;2023-02-24T00:44:58;39.75;;;25.17;;
40367;SDS011;26075;43.320;21.920;2023-02-24T00:55:33;43.53;;;26.02;;
40367;SDS011;26075;43.320;21.920;2023-02-24T01:00:36;52.08;;;33.08;;
40367;SDS011;26075;43.320;21.920;2023-02-24T01:11:24;44.75;;;28.27;;
40367;SDS011;26075;43.320;21.920;2023-02-24T01:16:53;42.25;;;29.83;;
40367;SDS011;26075;43.320;21.920;2023-02-24T01:21:54;43.25;;;27.20;;
40367;SDS011;26075;43.320;21.920;2023-02-24T01:32:53;36.58;;;24.73;;
40367;SDS011;26075;43.320;21.920;2023-02-24T01:37:56;32.08;;;22.85;;
40367;SDS011;26075;43.320;21.920;2023-02-24T01:48:17;33.03;;;23.92;;
40367;SDS011;26075;43.320;21.920;2023-02-24T01:53:19;37.60;;;24.60;;
40367;SDS011;26075;43.320;21.920;2023-02-24T02:04:12;35.25;;;24.00;;
40367;SDS011;26075;43.320;21.920;2023-02-24T02:09:15;37.45;;;23.50;;
40367;SDS011;26075;43.320;21.920;2023-02-24T02:14:17;31.33;;;22.55;;
40367;SDS011;26075;43.320;21.920;2023-02-24T02:19:26;38.03;;;24.67;;
40367;SDS011;26075;43.320;21.920;2023-02-24T02:24:45;35.83;;;23.92;;
40367;SDS011;26075;43.320;21.920;2023-02-24T02:35:30;36.42;;;24.15;;
40367;SDS011;26075;43.320;21.920;2023-02-24T02:46:15;40.03;;;24.35;;
40367;SDS011;26075;43.320;21.920;2023-02-24T02:51:18;35.10;;;24.50;;
40367;SDS011;26075;43.320;21.920;2023-02-24T02:56:26;39.03;;;27.05;;
40367;SDS011;26075;43.320;21.920;2023-02-24T03:01:30;39.92;;;24.60;;
40367;SDS011;26075;43.320;21.920;2023-02-24T03:12:13;36.63;;;24.88;;
40367;SDS011;26075;43.320;21.920;2023-02-24T03:17:27;32.53;;;23.50;;
40367;SDS011;26075;43.320;21.920;2023-02-24T03:22:35;35.15;;;22.80;;
40367;SDS011;26075;43.320;21.920;2023-02-24T03:27:46;31.95;;;23.35;;
40367;SDS011;26075;43.320;21.920;2023-02-24T03:33:27;37.50;;;23.30;;
40367;SDS011;26075;43.320;21.920;2023-02-24T03:38:30;31.92;;;22.80;;
40367;SDS011;26075;43.320;21.920;2023-02-24T03:49:13;32.45;;;22.88;;
40367;SDS011;26075;43.320;21.920;2023-02-24T04:00:02;37.65;;;23.48;;
40367;SDS011;26075;43.320;21.920;2023-02-24T04:11:24;37.97;;;22.52;;
40367;SDS011;26075;43.320;21.920;2023-02-24T04:22:18;38.03;;;22.80;;
40367;SDS011;26075;43.320;21.920;2023-02-24T04:38:20;36.03;;;22.48;;
40367;SDS011;26075;43.320;21.920;2023-02-24T04:54:21;38.97;;;27.50;;
40367;SDS011;26075;43.320;21.920;2023-02-24T05:05:01;39.72;;;28.23;;
40367;SDS011;26075;43.320;21.920;2023-02-24T05:15:39;42.75;;;29.48;;
40367;SDS011;26075;43.320;21.920;2023-02-24T05:20:48;44.03;;;29.13;;
40367;SDS011;26075;43.320;21.920;2023-02-24T05:32:07;46.75;;;29.63;;
40367;SDS011;26075;43.320;21.920;2023-02-24T05:37:08;47.97;;;31.45;;
40367;SDS011;26075;43.320;21.920;2023-02-24T05:42:09;48.88;;;32.45;;
40367;SDS011;26075;43.320;21.920;2023-02-24T05:47:10;54.72;;;36.47;;
40367;SDS011;26075;43.320;21.920;2023-02-24T06:03:44;54.28;;;32.78;;
40367;SDS011;26075;43.320;21.920;2023-02-24T06:08:46;47.97;;;32.60;;
40367;SDS011;26075;43.320;21.920;2023-02-24T06:13:50;53.83;;;33.60;;
40367;SDS011;26075;43.320;21.920;2023-02-24T06:19:07;50.08;;;32.35;;
40367;SDS011;26075;43.320;21.920;2023-02-24T06:24:13;51.15;;;32.72;;
40367;SDS011;26075;43.320;21.920;2023-02-24T06:29:17;45.63;;;32.25;;
40367;SDS011;26075;43.320;21.920;2023-02-24T06:39:43;40.53;;;30.47;;
40367;SDS011;26075;43.320;21.920;2023-02-24T06:44:44;47.45;;;32.35;;
40367;SDS011;26075;43.320;21.920;2023-02-24T06:49:46;46.97;;;33.65;;
40367;SDS011;26075;43.320;21.920;2023-02-24T06:54:47;50.95;;;34.72;;
40367;SDS011;26075;43.320;21.920;2023-02-24T06:59:48;47.80;;;34.83;;
40367;SDS011;26075;43.320;21.920;2023-02-24T07:04:49;51.28;;;32.38;;
40367;SDS011;26075;43.320;21.920;2023-02-24T07:09:54;50.00;;;30.88;;
40367;SDS011;26075;43.320;21.920;2023-02-24T07:14:54;61.97;;;35.28;;
40367;SDS011;26075;43.320;21.920;2023-02-24T07:19:55;51.03;;;35.72;;
40367;SDS011;26075;43.320;21.920;2023-02-24T07:24:56;51.78;;;37.75;;
40367;SDS011;26075;43.320;21.920;2023-02-24T07:30:00;53.40;;;37.10;;
40367;SDS011;26075;43.320;21.920;2023-02-24T07:35:05;55.42;;;34.78;;
40367;SDS011;26075;43.320;21.920;2023-02-24T07:40:06;44.63;;;31.20;;
40367;SDS011;26075;43.320;21.920;2023-02-24T07:45:07;51.15;;;33.47;;
40367;SDS011;26075;43.320;21.920;2023-02-24T07:50:09;53.33;;;33.50;;
40367;SDS011;26075;43.320;21.920;2023-02-24T07:55:14;47.65;;;31.60;;
40367;SDS011;26075;43.320;21.920;2023-02-24T08:00:15;52.80;;;33.10;;
40367;SDS011;26075;43.320;21.920;2023-02-24T08:05:19;58.72;;;34.67;;
40367;SDS011;26075;43.320;21.920;2023-02-24T08:10:22;50.83;;;33.30;;
40367;SDS011;26075;43.320;21.920;2023-02-24T08:15:25;59.90;;;38.20;;
40367;SDS011;26075;43.320;21.920;2023-02-24T08:20:32;51.70;;;33.15;;
40367;SDS011;26075;43.320;21.920;2023-02-24T08:25:50;48.40;;;34.78;;
40367;SDS011;26075;43.320;21.920;2023-02-24T08:30:52;47.10;;;31.98;;
40367;SDS011;26075;43.320;21.920;2023-02-24T08:35:53;52.83;;;32.45;;
40367;SDS011;26075;43.320;21.920;2023-02-24T08:41:00;56.70;;;37.50;;
40367;SDS011;26075;43.320;21.920;2023-02-24T08:56:28;46.25;;;30.45;;
40367;SDS011;26075;43.320;21.920;2023-02-24T09:16:57;44.38;;;29.73;;
40367;SDS011;26075;43.320;21.920;2023-02-24T09:22:01;42.97;;;28.40;;
40367;SDS011;26075;43.320;21.920;2023-02-24T09:27:13;41.22;;;26.45;;
40367;SDS011;26075;43.320;21.920;2023-02-24T09:32:16;42.58;;;28.30;;
40367;SDS011;26075;43.320;21.920;2023-02-24T09:37:17;37.50;;;25.45;;
40367;SDS011;26075;43.320;21.920;2023-02-24T09:42:28;38.95;;;25.38;;
40367;SDS011;26075;43.320;21.920;2023-02-24T09:47:45;40.92;;;25.58;;
40367;SDS011;26075;43.320;21.920;2023-02-24T09:52:56;33.20;;;24.70;;
40367;SDS011;26075;43.320;21.920;2023-02-24T10:09:13;38.58;;;26.75;;
40367;SDS011;26075;43.320;21.920;2023-02-24T10:20:15;38.50;;;28.15;;
40367;SDS011;26075;43.320;21.920;2023-02-24T10:31:02;39.08;;;28.48;;
40367;SDS011;26075;43.320;21.920;2023-02-24T10:36:26;38.95;;;26.95;;
40367;SDS011;26075;43.320;21.920;2023-02-24T10:41:50;38.92;;;25.17;;
40367;SDS011;26075;43.320;21.920;2023-02-24T10:47:33;45.70;;;28.40;;
40367;SDS011;26075;43.320;21.920;2023-02-24T10:52:34;44.42;;;27.33;;
40367;SDS011;26075;43.320;21.920;2023-02-24T10:57:59;36.20;;;25.88;;
40367;SDS011;26075;43.320;21.920;2023-02-24T11:03:14;37.40;;;26.58;;
40367;SDS011;26075;43.320;21.920;2023-02-24T11:08:24;35.33;;;25.83;;
40367;SDS011;26075;43.320;21.920;2023-02-24T11:13:37;37.92;;;26.17;;
40367;SDS011;26075;43.320;21.920;2023-02-24T11:18:56;42.15;;;26.50;;
40367;SDS011;26075;43.320;21.920;2023-02-24T11:23:59;36.47;;;24.90;;
40367;SDS011;26075;43.320;21.920;2023-02-24T11:34:10;34.70;;;23.70;;
40367;SDS011;26075;43.320;21.920;2023-02-24T11:44:51;33.60;;;19.13;;
40367;SDS011;26075;43.320;21.920;2023-02-24T11:50:02;26.63;;;16.65;;
40367;SDS011;26075;43.320;21.920;2023-02-24T11:55:13;25.23;;;15.43;;
40367;SDS011;26075;43.320;21.920;2023-02-24T12:00:32;22.80;;;13.65;;
40367;SDS011;26075;43.320;21.920;2023-02-24T12:05:42;23.90;;;12.68;;
40367;SDS011;26075;43.320;21.920;2023-02-24T12:10:57;21.83;;;13.85;;
40367;SDS011;26075;43.320;21.920;2023-02-24T12:16:17;21.97;;;13.53;;
40367;SDS011;26075;43.320;21.920;2023-02-24T12:21:26;26.65;;;12.35;;
40367;SDS011;26075;43.320;21.920;2023-02-24T12:37:32;25.33;;;7.95;;
40367;SDS011;26075;43.320;21.920;2023-02-24T12:58:33;21.95;;;6.88;;
40367;SDS011;26075;43.320;21.920;2023-02-24T13:19:30;16.25;;;5.72;;
40367;SDS011;26075;43.320;21.920;2023-02-24T13:24:31;25.23;;;6.10;;
40367;SDS011;26075;43.320;21.920;2023-02-24T13:29:42;19.95;;;7.25;;
40367;SDS011;26075;43.320;21.920;2023-02-24T13:34:47;16.27;;;7.53;;
40367;SDS011;26075;43.320;21.920;2023-02-24T13:39:50;16.02;;;6.25;;
40367;SDS011;26075;43.320;21.920;2023-02-24T13:44:52;19.65;;;7.57;;
40367;SDS011;26075;43.320;21.920;2023-02-24T13:55:28;31.13;;;8.40;;
40367;SDS011;26075;43.320;21.920;2023-02-24T14:01:30;15.73;;;6.35;;
40367;SDS011;26075;43.320;21.920;2023-02-24T14:06:24;21.08;;;6.47;;
40367;SDS011;26075;43.320;21.920;2023-02-24T14:11:27;18.65;;;7.05;;
40367;SDS011;26075;43.320;21.920;2023-02-24T14:16:33;26.23;;;7.65;;
40367;SDS011;26075;43.320;21.920;2023-02-24T14:21:44;18.65;;;6.50;;
40367;SDS011;26075;43.320;21.920;2023-02-24T14:26:51;19.60;;;6.43;;
40367;SDS011;26075;43.320;21.920;2023-02-24T14:31:54;23.02;;;8.32;;
40367;SDS011;26075;43.320;21.920;2023-02-24T14:36:56;22.10;;;8.20;;
40367;SDS011;26075;43.320;21.920;2023-02-24T14:47:08;19.90;;;7.47;;
40367;SDS011;26075;43.320;21.920;2023-02-24T14:52:13;19.38;;;8.13;;
40367;SDS011;26075;43.320;21.920;2023-02-24T14:57:23;19.48;;;8.20;;
40367;SDS011;26075;43.320;21.920;2023-02-24T15:02:30;23.20;;;10.07;;
40367;SDS011;26075;43.320;21.920;2023-02-24T15:07:32;34.10;;;16.97;;
40367;SDS011;26075;43.320;21.920;2023-02-24T15:12:35;31.10;;;12.82;;
40367;SDS011;26075;43.320;21.920;2023-02-24T15:17:46;38.17;;;17.63;;
40367;SDS011;26075;43.320;21.920;2023-02-24T15:23:00;37.30;;;19.17;;
40367;SDS011;26075;43.320;21.920;2023-02-24T15:28:03;27.50;;;16.10;;
40367;SDS011;26075;43.320;21.920;2023-02-24T15:33:23;21.88;;;10.77;;
40367;SDS011;26075;43.320;21.920;2023-02-24T15:38:32;35.15;;;16.52;;
40367;SDS011;26075;43.320;21.920;2023-02-24T15:48:48;28.95;;;17.65;;
40367;SDS011;26075;43.320;21.920;2023-02-24T15:53:52;34.17;;;16.65;;
40367;SDS011;26075;43.320;21.920;2023-02-24T15:58:53;38.00;;;18.98;;
40367;SDS011;26075;43.320;21.920;2023-02-24T16:03:54;41.55;;;20.52;;
40367;SDS011;26075;43.320;21.920;2023-02-24T16:08:55;74.40;;;41.72;;
40367;SDS011;26075;43.320;21.920;2023-02-24T16:13:58;60.55;;;33.95;;
40367;SDS011;26075;43.320;21.920;2023-02-24T16:18:59;76.00;;;45.47;;
40367;SDS011;26075;43.320;21.920;2023-02-24T16:24:05;70.50;;;41.85;;
40367;SDS011;26075;43.320;21.920;2023-02-24T16:29:06;67.05;;;43.20;;
40367;SDS011;26075;43.320;21.920;2023-02-24T16:34:13;68.50;;;41.70;;
40367;SDS011;26075;43.320;21.920;2023-02-24T16:39:15;77.97;;;43.63;;
40367;SDS011;26075;43.320;21.920;2023-02-24T16:44:15;75.47;;;43.72;;
40367;SDS011;26075;43.320;21.920;2023-02-24T16:49:17;118.03;;;69.75;;
40367;SDS011;26075;43.320;21.920;2023-02-24T16:54:19;97.10;;;55.50;;
40367;SDS011;26075;43.320;21.920;2023-02-24T16:59:21;101.78;;;56.20;;
40367;SDS011;26075;43.320;21.920;2023-02-24T17:04:22;81.88;;;45.53;;
40367;SDS011;26075;43.320;21.920;2023-02-24T17:09:24;71.15;;;40.08;;
40367;SDS011;26075;43.320;21.920;2023-02-24T17:14:28;51.03;;;26.10;;
40367;SDS011;26075;43.320;21.920;2023-02-24T17:19:29;52.40;;;21.92;;
40367;SDS011;26075;43.320;21.920;2023-02-24T17:24:29;16.02;;;8.77;;
40367;SDS011;26075;43.320;21.920;2023-02-24T17:29:30;31.33;;;12.02;;
40367;SDS011;26075;43.320;21.920;2023-02-24T17:34:31;22.80;;;10.20;;
40367;SDS011;26075;43.320;21.920;2023-02-24T17:39:31;32.15;;;14.00;;
40367;SDS011;26075;43.320;21.920;2023-02-24T17:44:32;30.90;;;12.93;;
40367;SDS011;26075;43.320;21.920;2023-02-24T17:49:33;25.27;;;12.00;;
40367;SDS011;26075;43.320;21.920;2023-02-24T17:54:39;33.60;;;14.55;;
40367;SDS011;26075;43.320;21.920;2023-02-24T17:59:41;43.35;;;17.08;;
40367;SDS011;26075;43.320;21.920;2023-02-24T18:04:43;35.85;;;16.63;;
40367;SDS011;26075;43.320;21.920;2023-02-24T18:09:46;32.92;;;14.55;;
40367;SDS011;26075;43.320;21.920;2023-02-24T18:14:54;30.05;;;11.18;;
40367;SDS011;26075;43.320;21.920;2023-02-24T18:19:55;24.45;;;10.27;;
40367;SDS011;26075;43.320;21.920;2023-02-24T18:24:55;25.17;;;11.32;;
40367;SDS011;26075;43.320;21.920;2023-02-24T18:29:59;22.40;;;11.80;;
40367;SDS011;26075;43.320;21.920;2023-02-24T18:35:05;21.58;;;11.18;;
40367;SDS011;26075;43.320;21.920;2023-02-24T18:40:05;20.98;;;10.40;;
40367;SDS011;26075;43.320;21.920;2023-02-24T18:45:07;29.58;;;11.38;;
40367;SDS011;26075;43.320;21.920;2023-02-24T18:50:08;24.45;;;10.77;;
40367;SDS011;26075;43.320;21.920;2023-02-24T18:55:09;26.83;;;11.43;;
40367;SDS011;26075;43.320;21.920;2023-02-24T19:00:10;26.10;;;11.73;;
40367;SDS011;26075;43.320;21.920;2023-02-24T19:05:11;24.40;;;12.02;;
40367;SDS011;26075;43.320;21.920;2023-02-24T19:10:11;32.78;;;13.65;;
40367;SDS011;26075;43.320;21.920;2023-02-24T19:15:12;29.77;;;13.75;;
40367;SDS011;26075;43.320;21.920;2023-02-24T19:25:47;33.35;;;12.50;;
40367;SDS011;26075;43.320;21.920;2023-02-24T19:36:31;34.38;;;16.00;;
40367;SDS011;26075;43.320;21.920;2023-02-24T19:41:33;34.45;;;13.35;;
40367;SDS011;26075;43.320;21.920;2023-02-24T19:57:41;35.17;;;16.90;;
40367;SDS011;26075;43.320;21.920;2023-02-24T20:02:42;36.92;;;13.35;;
40367;SDS011;26075;43.320;21.920;2023-02-24T20:07:48;33.47;;;13.93;;
40367;SDS011;26075;43.320;21.920;2023-02-24T20:12:48;45.47;;;16.90;;
40367;SDS011;26075;43.320;21.920;2023-02-24T20:23:46;35.83;;;21.02;;
40367;SDS011;26075;43.320;21.920;2023-02-24T20:29:00;47.10;;;19.75;;
40367;SDS011;26075;43.320;21.920;2023-02-24T20:34:00;37.53;;;17.80;;
40367;SDS011;26075;43.320;21.920;2023-02-24T20:39:03;78.43;;;34.60;;
40367;SDS011;26075;43.320;21.920;2023-02-24T20:44:05;88.93;;;48.10;;
40367;SDS011;26075;43.320;21.920;2023-02-24T20:49:07;104.15;;;56.70;;
40367;SDS011;26075;43.320;21.920;2023-02-24T20:54:10;68.93;;;42.22;;
40367;SDS011;26075;43.320;21.920;2023-02-24T20:59:13;72.00;;;44.95;;
40367;SDS011;26075;43.320;21.920;2023-02-24T21:04:17;75.32;;;41.30;;
40367;SDS011;26075;43.320;21.920;2023-02-24T21:09:19;72.88;;;41.75;;
40367;SDS011;26075;43.320;21.920;2023-02-24T21:14:20;71.15;;;42.28;;
40367;SDS011;26075;43.320;21.920;2023-02-24T21:19:29;96.07;;;53.28;;
40367;SDS011;26075;43.320;21.920;2023-02-24T21:24:30;87.18;;;50.30;;
40367;SDS011;26075;43.320;21.920;2023-02-24T21:29:31;102.25;;;50.55;;
40367;SDS011;26075;43.320;21.920;2023-02-24T21:34:31;109.93;;;63.28;;
40367;SDS011;26075;43.320;21.920;2023-02-24T21:39:32;104.13;;;60.50;;
40367;SDS011;26075;43.320;21.920;2023-02-24T21:44:33;102.15;;;58.30;;
40367;SDS011;26075;43.320;21.920;2023-02-24T21:49:34;123.68;;;70.18;;
40367;SDS011;26075;43.320;21.920;2023-02-24T21:54:42;124.05;;;75.95;;
40367;SDS011;26075;43.320;21.920;2023-02-24T21:59:42;489.15;;;227.18;;
40367;SDS011;26075;43.320;21.920;2023-02-24T22:10:40;150.02;;;84.15;;
40367;SDS011;26075;43.320;21.920;2023-02-24T22:15:51;127.40;;;75.90;;
40367;SDS011;26075;43.320;21.920;2023-02-24T22:20:51;130.02;;;75.30;;
40367;SDS011;26075;43.320;21.920;2023-02-24T22:25:52;120.57;;;72.45;;
40367;SDS011;26075;43.320;21.920;2023-02-24T22:30:53;131.95;;;79.97;;
40367;SDS011;26075;43.320;21.920;2023-02-24T22:41:45;142.32;;;85.93;;
40367;SDS011;26075;43.320;21.920;2023-02-24T22:46:49;113.18;;;70.20;;
40367;SDS011;26075;43.320;21.920;2023-02-24T22:51:50;112.60;;;60.33;;
40367;SDS011;26075;43.320;21.920;2023-02-24T23:02:47;144.82;;;91.15;;
40367;SDS011;26075;43.320;21.920;2023-02-24T23:07:48;126.55;;;80.57;;
40367;SDS011;26075;43.320;21.920;2023-02-24T23:12:48;99.57;;;59.60;;
40367;SDS011;26075;43.320;21.920;2023-02-24T23:18:01;95.47;;;55.72;;
40367;SDS011;26075;43.320;21.920;2023-02-24T23:23:05;92.15;;;53.88;;
40367;SDS011;26075;43.320;21.920;2023-02-24T23:28:06;74.20;;;43.50;;
40367;SDS011;26075;43.320;21.920;2023-02-24T23:33:07;87.85;;;54.58;;
40367;SDS011;26075;43.320;21.920;2023-02-24T23:43:52;94.68;;;58.78;;
40367;SDS011;26075;43.320;21.920;2023-02-24T23:54:27;99.78;;;58.90;;
